Terminal Aerodrome Forecast
Issued by NWS

Home | Current Version | Previous Version | Text Only | Print | Product List | Glossary On
Versions: 1 2 3 4 5 6 7 8 9 10 11 12 13 14 15 16 17 18 19 20 21 22 23 24 25 26 27 28 29 30
722
FTUS46 KLOX 280005 RRA
TAFPRB
TAF
KPRB 280005Z 2800/2824 33018G26KT P6SM SKC
     FM280400 33012G18KT P6SM SKC
     FM280800 34009KT P6SM SKC
     FM281300 VRB03KT 6SM BR SCT004
     FM281700 34007KT P6SM SKC
     FM282300 34012KT P6SM SKC=

USA.gov is the U.S. government's official web portal to all federal, state and local government web resources and services.